sensor_id;sensor_type;location;lat;lon;timestamp;temperature;humidity
61167;DHT22;47038;50.808;3.468;2022-08-19T00:01:23;20.10;99.90
61167;DHT22;47038;50.808;3.468;2022-08-19T00:03:48;20.00;99.90
61167;DHT22;47038;50.808;3.468;2022-08-19T00:06:14;20.00;99.90
61167;DHT22;47038;50.808;3.468;2022-08-19T00:08:40;20.00;99.90
61167;DHT22;47038;50.808;3.468;2022-08-19T00:11:05;20.00;99.90
61167;DHT22;47038;50.808;3.468;2022-08-19T00:13:31;20.00;99.90
61167;DHT22;47038;50.808;3.468;2022-08-19T00:15:57;20.00;99.90
61167;DHT22;47038;50.808;3.468;2022-08-19T00:18:24;19.90;99.90
61167;DHT22;47038;50.808;3.468;2022-08-19T00:20:50;19.90;99.90
61167;DHT22;47038;50.808;3.468;2022-08-19T00:23:16;19.90;99.90
61167;DHT22;47038;50.808;3.468;2022-08-19T00:25:42;19.90;99.90
61167;DHT22;47038;50.808;3.468;2022-08-19T00:28:07;19.90;99.90
61167;DHT22;47038;50.808;3.468;2022-08-19T00:30:33;19.70;99.90
61167;DHT22;47038;50.808;3.468;2022-08-19T00:32:58;19.70;99.90
61167;DHT22;47038;50.808;3.468;2022-08-19T00:35:24;19.70;99.90
61167;DHT22;47038;50.808;3.468;2022-08-19T00:37:52;19.80;99.90
61167;DHT22;47038;50.808;3.468;2022-08-19T00:40:18;19.70;99.90
61167;DHT22;47038;50.808;3.468;2022-08-19T00:42:45;19.80;99.90
61167;DHT22;47038;50.808;3.468;2022-08-19T00:45:12;19.70;99.90
61167;DHT22;47038;50.808;3.468;2022-08-19T00:47:38;19.70;99.90
61167;DHT22;47038;50.808;3.468;2022-08-19T00:50:04;19.70;99.90
61167;DHT22;47038;50.808;3.468;2022-08-19T00:52:32;19.60;99.90
61167;DHT22;47038;50.808;3.468;2022-08-19T00:54:58;19.60;99.90
61167;DHT22;47038;50.808;3.468;2022-08-19T00:57:30;19.50;99.90
61167;DHT22;47038;50.808;3.468;2022-08-19T00:59:57;19.60;99.90
61167;DHT22;47038;50.808;3.468;2022-08-19T01:02:25;19.50;99.90
61167;DHT22;47038;50.808;3.468;2022-08-19T01:04:51;19.40;99.90
61167;DHT22;47038;50.808;3.468;2022-08-19T01:07:16;19.40;99.90
61167;DHT22;47038;50.808;3.468;2022-08-19T01:09:42;19.40;99.90
61167;DHT22;47038;50.808;3.468;2022-08-19T01:12:08;19.40;99.90
61167;DHT22;47038;50.808;3.468;2022-08-19T01:14:34;19.40;99.90
61167;DHT22;47038;50.808;3.468;2022-08-19T01:17:00;19.20;99.90
61167;DHT22;47038;50.808;3.468;2022-08-19T01:19:27;19.20;99.90
61167;DHT22;47038;50.808;3.468;2022-08-19T01:24:52;19.20;99.90
61167;DHT22;47038;50.808;3.468;2022-08-19T01:27:17;19.20;99.90
61167;DHT22;47038;50.808;3.468;2022-08-19T01:29:43;19.10;99.90
61167;DHT22;47038;50.808;3.468;2022-08-19T01:32:14;19.10;99.90
61167;DHT22;47038;50.808;3.468;2022-08-19T01:34:40;19.10;99.90
61167;DHT22;47038;50.808;3.468;2022-08-19T01:37:10;19.10;99.90
61167;DHT22;47038;50.808;3.468;2022-08-19T01:39:37;19.10;99.90
61167;DHT22;47038;50.808;3.468;2022-08-19T01:42:03;19.00;99.90
61167;DHT22;47038;50.808;3.468;2022-08-19T01:44:29;19.10;99.90
61167;DHT22;47038;50.808;3.468;2022-08-19T01:46:55;19.10;99.90
61167;DHT22;47038;50.808;3.468;2022-08-19T01:49:22;19.00;99.90
61167;DHT22;47038;50.808;3.468;2022-08-19T01:51:49;18.90;99.90
61167;DHT22;47038;50.808;3.468;2022-08-19T01:54:16;18.80;99.90
61167;DHT22;47038;50.808;3.468;2022-08-19T01:56:42;18.70;99.90
61167;DHT22;47038;50.808;3.468;2022-08-19T01:59:13;18.60;99.90
61167;DHT22;47038;50.808;3.468;2022-08-19T02:01:40;18.60;99.90
61167;DHT22;47038;50.808;3.468;2022-08-19T02:04:05;18.50;99.90
61167;DHT22;47038;50.808;3.468;2022-08-19T02:06:31;18.40;99.90
61167;DHT22;47038;50.808;3.468;2022-08-19T02:08:58;18.30;99.90
61167;DHT22;47038;50.808;3.468;2022-08-19T02:11:24;18.30;99.90
61167;DHT22;47038;50.808;3.468;2022-08-19T02:13:52;18.40;99.90
61167;DHT22;47038;50.808;3.468;2022-08-19T02:16:18;18.50;99.90
61167;DHT22;47038;50.808;3.468;2022-08-19T02:18:44;18.40;99.90
61167;DHT22;47038;50.808;3.468;2022-08-19T02:21:10;18.50;99.90
61167;DHT22;47038;50.808;3.468;2022-08-19T02:23:36;18.60;99.90
61167;DHT22;47038;50.808;3.468;2022-08-19T02:26:01;18.50;99.90
61167;DHT22;47038;50.808;3.468;2022-08-19T02:28:27;18.50;99.90
61167;DHT22;47038;50.808;3.468;2022-08-19T02:30:53;18.60;99.90
61167;DHT22;47038;50.808;3.468;2022-08-19T02:33:18;18.60;99.90
61167;DHT22;47038;50.808;3.468;2022-08-19T02:35:44;18.50;99.90
61167;DHT22;47038;50.808;3.468;2022-08-19T02:38:10;18.50;99.90
61167;DHT22;47038;50.808;3.468;2022-08-19T02:40:53;18.50;99.90
61167;DHT22;47038;50.808;3.468;2022-08-19T02:43:19;18.50;99.90
61167;DHT22;47038;50.808;3.468;2022-08-19T02:45:48;18.60;99.90
61167;DHT22;47038;50.808;3.468;2022-08-19T02:48:15;18.50;99.90
61167;DHT22;47038;50.808;3.468;2022-08-19T02:50:42;18.70;99.90
61167;DHT22;47038;50.808;3.468;2022-08-19T02:53:08;18.70;99.90
61167;DHT22;47038;50.808;3.468;2022-08-19T02:55:34;18.60;99.90
61167;DHT22;47038;50.808;3.468;2022-08-19T02:57:59;18.60;99.90
61167;DHT22;47038;50.808;3.468;2022-08-19T03:00:25;18.70;99.90
61167;DHT22;47038;50.808;3.468;2022-08-19T03:02:51;18.80;99.90
61167;DHT22;47038;50.808;3.468;2022-08-19T03:05:17;18.70;99.90
61167;DHT22;47038;50.808;3.468;2022-08-19T03:07:42;18.60;99.90
61167;DHT22;47038;50.808;3.468;2022-08-19T03:10:08;18.60;99.90
61167;DHT22;47038;50.808;3.468;2022-08-19T03:12:37;18.60;99.90
61167;DHT22;47038;50.808;3.468;2022-08-19T03:15:04;18.50;99.90
61167;DHT22;47038;50.808;3.468;2022-08-19T03:17:31;18.60;99.90
61167;DHT22;47038;50.808;3.468;2022-08-19T03:19:56;18.60;99.90
61167;DHT22;47038;50.808;3.468;2022-08-19T03:22:22;18.60;99.90
61167;DHT22;47038;50.808;3.468;2022-08-19T03:24:47;18.80;99.90
61167;DHT22;47038;50.808;3.468;2022-08-19T03:27:13;18.80;99.90
61167;DHT22;47038;50.808;3.468;2022-08-19T03:29:39;18.90;99.90
61167;DHT22;47038;50.808;3.468;2022-08-19T03:32:05;18.80;99.90
61167;DHT22;47038;50.808;3.468;2022-08-19T03:34:31;18.90;99.90
61167;DHT22;47038;50.808;3.468;2022-08-19T03:36:58;18.90;99.90
61167;DHT22;47038;50.808;3.468;2022-08-19T03:39:25;18.80;99.90
61167;DHT22;47038;50.808;3.468;2022-08-19T03:41:51;18.80;99.90
61167;DHT22;47038;50.808;3.468;2022-08-19T03:44:19;18.80;99.90
61167;DHT22;47038;50.808;3.468;2022-08-19T03:46:47;18.80;99.90
61167;DHT22;47038;50.808;3.468;2022-08-19T03:49:12;18.60;99.90
61167;DHT22;47038;50.808;3.468;2022-08-19T03:51:38;18.60;99.90
61167;DHT22;47038;50.808;3.468;2022-08-19T03:54:05;18.60;99.90
61167;DHT22;47038;50.808;3.468;2022-08-19T03:56:32;18.60;99.90
61167;DHT22;47038;50.808;3.468;2022-08-19T03:58:59;18.70;99.90
61167;DHT22;47038;50.808;3.468;2022-08-19T04:01:25;18.80;99.90
61167;DHT22;47038;50.808;3.468;2022-08-19T04:03:57;18.80;99.90
61167;DHT22;47038;50.808;3.468;2022-08-19T04:06:28;18.80;99.90
61167;DHT22;47038;50.808;3.468;2022-08-19T04:08:54;18.80;99.90
61167;DHT22;47038;50.808;3.468;2022-08-19T04:11:22;18.70;99.90
61167;DHT22;47038;50.808;3.468;2022-08-19T04:13:48;18.70;99.90
61167;DHT22;47038;50.808;3.468;2022-08-19T04:16:14;18.90;99.90
61167;DHT22;47038;50.808;3.468;2022-08-19T04:18:40;18.90;99.90
61167;DHT22;47038;50.808;3.468;2022-08-19T04:21:07;18.90;99.90
61167;DHT22;47038;50.808;3.468;2022-08-19T04:23:33;18.90;99.90
61167;DHT22;47038;50.808;3.468;2022-08-19T04:26:01;19.00;99.90
61167;DHT22;47038;50.808;3.468;2022-08-19T04:28:27;19.00;99.90
61167;DHT22;47038;50.808;3.468;2022-08-19T04:30:54;19.10;99.90
61167;DHT22;47038;50.808;3.468;2022-08-19T04:33:21;19.20;99.90
61167;DHT22;47038;50.808;3.468;2022-08-19T04:35:49;19.30;99.90
61167;DHT22;47038;50.808;3.468;2022-08-19T04:38:16;19.20;99.90
61167;DHT22;47038;50.808;3.468;2022-08-19T04:40:42;19.20;99.90
61167;DHT22;47038;50.808;3.468;2022-08-19T04:43:26;19.30;99.90
61167;DHT22;47038;50.808;3.468;2022-08-19T04:45:52;19.20;99.90
61167;DHT22;47038;50.808;3.468;2022-08-19T04:48:18;19.20;99.90
61167;DHT22;47038;50.808;3.468;2022-08-19T04:50:55;19.20;99.90
61167;DHT22;47038;50.808;3.468;2022-08-19T04:53:28;19.30;99.90
61167;DHT22;47038;50.808;3.468;2022-08-19T04:55:55;19.20;99.90
61167;DHT22;47038;50.808;3.468;2022-08-19T04:58:22;19.10;99.90
61167;DHT22;47038;50.808;3.468;2022-08-19T05:00:47;19.10;99.90
61167;DHT22;47038;50.808;3.468;2022-08-19T05:03:13;19.30;99.90
61167;DHT22;47038;50.808;3.468;2022-08-19T05:05:42;19.30;99.90
61167;DHT22;47038;50.808;3.468;2022-08-19T05:08:09;19.40;99.90
61167;DHT22;47038;50.808;3.468;2022-08-19T05:10:35;19.40;99.90
61167;DHT22;47038;50.808;3.468;2022-08-19T05:13:01;19.40;99.90
61167;DHT22;47038;50.808;3.468;2022-08-19T05:15:26;19.60;99.90
61167;DHT22;47038;50.808;3.468;2022-08-19T05:17:52;19.50;99.90
61167;DHT22;47038;50.808;3.468;2022-08-19T05:20:37;19.70;99.90
61167;DHT22;47038;50.808;3.468;2022-08-19T05:23:21;19.70;99.90
61167;DHT22;47038;50.808;3.468;2022-08-19T05:25:47;19.90;99.90
61167;DHT22;47038;50.808;3.468;2022-08-19T05:28:13;19.80;99.90
61167;DHT22;47038;50.808;3.468;2022-08-19T05:30:38;19.90;99.90
61167;DHT22;47038;50.808;3.468;2022-08-19T05:33:05;19.80;99.90
61167;DHT22;47038;50.808;3.468;2022-08-19T05:35:31;20.00;99.90
61167;DHT22;47038;50.808;3.468;2022-08-19T05:37:57;20.10;99.90
61167;DHT22;47038;50.808;3.468;2022-08-19T05:40:22;20.20;99.90
61167;DHT22;47038;50.808;3.468;2022-08-19T05:42:48;20.30;99.90
61167;DHT22;47038;50.808;3.468;2022-08-19T05:45:14;20.30;99.90
61167;DHT22;47038;50.808;3.468;2022-08-19T05:47:40;20.20;99.90
61167;DHT22;47038;50.808;3.468;2022-08-19T05:50:06;20.10;99.90
61167;DHT22;47038;50.808;3.468;2022-08-19T05:52:31;20.30;99.90
61167;DHT22;47038;50.808;3.468;2022-08-19T05:54:57;20.30;99.90
61167;DHT22;47038;50.808;3.468;2022-08-19T05:57:23;20.40;99.90
61167;DHT22;47038;50.808;3.468;2022-08-19T05:59:48;20.30;99.90
61167;DHT22;47038;50.808;3.468;2022-08-19T06:02:16;20.50;99.90
61167;DHT22;47038;50.808;3.468;2022-08-19T06:04:42;20.50;99.90
61167;DHT22;47038;50.808;3.468;2022-08-19T06:07:10;20.50;99.90
61167;DHT22;47038;50.808;3.468;2022-08-19T06:09:36;20.60;99.90
61167;DHT22;47038;50.808;3.468;2022-08-19T06:12:02;20.70;99.90
61167;DHT22;47038;50.808;3.468;2022-08-19T06:14:31;20.70;99.90
61167;DHT22;47038;50.808;3.468;2022-08-19T06:16:57;20.80;99.90
61167;DHT22;47038;50.808;3.468;2022-08-19T06:19:25;20.60;99.90
61167;DHT22;47038;50.808;3.468;2022-08-19T06:21:51;20.50;99.90
61167;DHT22;47038;50.808;3.468;2022-08-19T06:24:19;20.50;99.90
61167;DHT22;47038;50.808;3.468;2022-08-19T06:26:46;20.70;99.90
61167;DHT22;47038;50.808;3.468;2022-08-19T06:29:12;20.60;99.90
61167;DHT22;47038;50.808;3.468;2022-08-19T06:31:40;20.70;99.90
61167;DHT22;47038;50.808;3.468;2022-08-19T06:34:06;20.70;99.90
61167;DHT22;47038;50.808;3.468;2022-08-19T06:36:32;20.80;99.90
61167;DHT22;47038;50.808;3.468;2022-08-19T06:39:06;21.00;99.90
61167;DHT22;47038;50.808;3.468;2022-08-19T06:41:36;20.90;99.90
61167;DHT22;47038;50.808;3.468;2022-08-19T06:44:02;20.90;99.90
61167;DHT22;47038;50.808;3.468;2022-08-19T06:46:28;21.00;99.90
61167;DHT22;47038;50.808;3.468;2022-08-19T06:48:54;21.00;99.90
61167;DHT22;47038;50.808;3.468;2022-08-19T06:51:20;21.10;99.90
61167;DHT22;47038;50.808;3.468;2022-08-19T06:53:46;21.10;99.90
61167;DHT22;47038;50.808;3.468;2022-08-19T06:56:13;21.10;99.90
61167;DHT22;47038;50.808;3.468;2022-08-19T06:58:39;21.00;99.90
61167;DHT22;47038;50.808;3.468;2022-08-19T07:01:06;21.10;99.90
61167;DHT22;47038;50.808;3.468;2022-08-19T07:03:32;21.00;99.90
61167;DHT22;47038;50.808;3.468;2022-08-19T07:06:09;21.10;99.90
61167;DHT22;47038;50.808;3.468;2022-08-19T07:08:35;21.10;99.90
61167;DHT22;47038;50.808;3.468;2022-08-19T07:11:02;20.90;99.90
61167;DHT22;47038;50.808;3.468;2022-08-19T07:13:30;21.00;99.90
61167;DHT22;47038;50.808;3.468;2022-08-19T07:18:30;21.30;99.90
61167;DHT22;47038;50.808;3.468;2022-08-19T07:23:53;21.40;99.90
61167;DHT22;47038;50.808;3.468;2022-08-19T07:26:23;21.40;99.90
61167;DHT22;47038;50.808;3.468;2022-08-19T07:28:50;21.40;99.90
61167;DHT22;47038;50.808;3.468;2022-08-19T07:31:16;21.50;99.90
61167;DHT22;47038;50.808;3.468;2022-08-19T07:33:43;21.50;99.90
61167;DHT22;47038;50.808;3.468;2022-08-19T07:36:10;21.60;99.90
61167;DHT22;47038;50.808;3.468;2022-08-19T07:38:40;21.70;99.90
61167;DHT22;47038;50.808;3.468;2022-08-19T07:41:06;21.50;99.90
61167;DHT22;47038;50.808;3.468;2022-08-19T07:43:32;21.60;99.90
61167;DHT22;47038;50.808;3.468;2022-08-19T07:45:57;21.70;99.90
61167;DHT22;47038;50.808;3.468;2022-08-19T07:48:24;21.70;99.90
61167;DHT22;47038;50.808;3.468;2022-08-19T07:50:53;21.80;99.90
61167;DHT22;47038;50.808;3.468;2022-08-19T07:53:20;21.80;99.90
61167;DHT22;47038;50.808;3.468;2022-08-19T07:55:45;21.80;99.90
61167;DHT22;47038;50.808;3.468;2022-08-19T07:58:12;22.10;99.90
61167;DHT22;47038;50.808;3.468;2022-08-19T08:00:38;22.10;99.90
61167;DHT22;47038;50.808;3.468;2022-08-19T08:03:04;22.10;99.90
61167;DHT22;47038;50.808;3.468;2022-08-19T08:05:29;22.10;99.90
61167;DHT22;47038;50.808;3.468;2022-08-19T08:08:14;22.10;99.90
61167;DHT22;47038;50.808;3.468;2022-08-19T08:10:48;22.20;99.90
61167;DHT22;47038;50.808;3.468;2022-08-19T08:13:15;22.20;99.90
61167;DHT22;47038;50.808;3.468;2022-08-19T08:15:41;22.20;99.90
61167;DHT22;47038;50.808;3.468;2022-08-19T08:18:07;22.10;99.90
61167;DHT22;47038;50.808;3.468;2022-08-19T08:20:33;22.20;99.90
61167;DHT22;47038;50.808;3.468;2022-08-19T08:22:58;22.20;99.90
61167;DHT22;47038;50.808;3.468;2022-08-19T08:25:43;22.20;99.90
61167;DHT22;47038;50.808;3.468;2022-08-19T08:28:08;22.30;99.90
61167;DHT22;47038;50.808;3.468;2022-08-19T08:30:34;22.30;99.90
61167;DHT22;47038;50.808;3.468;2022-08-19T08:33:01;22.40;99.90
61167;DHT22;47038;50.808;3.468;2022-08-19T08:35:26;22.40;99.90
61167;DHT22;47038;50.808;3.468;2022-08-19T08:37:53;22.40;99.90
61167;DHT22;47038;50.808;3.468;2022-08-19T08:42:50;22.60;99.90
61167;DHT22;47038;50.808;3.468;2022-08-19T08:45:17;22.90;99.90
61167;DHT22;47038;50.808;3.468;2022-08-19T08:47:48;23.10;99.90
61167;DHT22;47038;50.808;3.468;2022-08-19T08:50:19;23.40;99.90
61167;DHT22;47038;50.808;3.468;2022-08-19T08:52:52;23.70;99.90
61167;DHT22;47038;50.808;3.468;2022-08-19T08:55:21;23.90;99.90
61167;DHT22;47038;50.808;3.468;2022-08-19T09:00:23;24.10;99.10
61167;DHT22;47038;50.808;3.468;2022-08-19T09:02:50;24.10;99.00
61167;DHT22;47038;50.808;3.468;2022-08-19T09:05:16;23.90;99.50
61167;DHT22;47038;50.808;3.468;2022-08-19T09:15:09;23.90;99.60
61167;DHT22;47038;50.808;3.468;2022-08-19T09:17:35;24.10;99.20
61167;DHT22;47038;50.808;3.468;2022-08-19T09:22:36;24.60;98.10
61167;DHT22;47038;50.808;3.468;2022-08-19T09:25:02;24.70;97.70
61167;DHT22;47038;50.808;3.468;2022-08-19T09:27:28;24.90;97.60
61167;DHT22;47038;50.808;3.468;2022-08-19T09:29:53;24.90;97.00
61167;DHT22;47038;50.808;3.468;2022-08-19T09:32:20;24.90;97.00
61167;DHT22;47038;50.808;3.468;2022-08-19T09:34:47;24.70;97.30
61167;DHT22;47038;50.808;3.468;2022-08-19T09:37:12;24.60;97.40
61167;DHT22;47038;50.808;3.468;2022-08-19T09:39:39;24.60;97.60
61167;DHT22;47038;50.808;3.468;2022-08-19T09:42:09;24.70;97.50
61167;DHT22;47038;50.808;3.468;2022-08-19T09:44:39;24.70;97.40
61167;DHT22;47038;50.808;3.468;2022-08-19T09:47:05;24.80;97.10
61167;DHT22;47038;50.808;3.468;2022-08-19T09:49:31;24.90;96.80
61167;DHT22;47038;50.808;3.468;2022-08-19T09:51:57;24.80;96.80
61167;DHT22;47038;50.808;3.468;2022-08-19T09:54:22;25.00;96.50
61167;DHT22;47038;50.808;3.468;2022-08-19T09:56:48;25.00;96.30
61167;DHT22;47038;50.808;3.468;2022-08-19T09:59:14;25.00;96.70
61167;DHT22;47038;50.808;3.468;2022-08-19T10:01:40;25.10;96.90
61167;DHT22;47038;50.808;3.468;2022-08-19T10:04:05;25.30;96.80
61167;DHT22;47038;50.808;3.468;2022-08-19T10:06:35;25.10;96.30
61167;DHT22;47038;50.808;3.468;2022-08-19T10:09:01;24.90;96.60
61167;DHT22;47038;50.808;3.468;2022-08-19T10:11:28;24.70;97.00
61167;DHT22;47038;50.808;3.468;2022-08-19T10:13:54;24.60;97.20
61167;DHT22;47038;50.808;3.468;2022-08-19T10:16:20;24.80;96.90
61167;DHT22;47038;50.808;3.468;2022-08-19T10:18:48;25.10;96.70
61167;DHT22;47038;50.808;3.468;2022-08-19T10:23:41;25.60;95.30
61167;DHT22;47038;50.808;3.468;2022-08-19T10:26:11;25.60;94.90
61167;DHT22;47038;50.808;3.468;2022-08-19T10:28:37;25.50;95.00
61167;DHT22;47038;50.808;3.468;2022-08-19T10:31:03;25.50;95.30
61167;DHT22;47038;50.808;3.468;2022-08-19T10:33:31;25.50;95.50
61167;DHT22;47038;50.808;3.468;2022-08-19T10:36:01;25.60;95.30
61167;DHT22;47038;50.808;3.468;2022-08-19T10:38:27;25.80;94.90
61167;DHT22;47038;50.808;3.468;2022-08-19T10:40:54;26.00;94.60
61167;DHT22;47038;50.808;3.468;2022-08-19T10:43:20;26.10;94.20
61167;DHT22;47038;50.808;3.468;2022-08-19T10:45:51;26.00;94.50
61167;DHT22;47038;50.808;3.468;2022-08-19T10:48:16;26.00;94.40
61167;DHT22;47038;50.808;3.468;2022-08-19T10:50:42;26.10;93.90
61167;DHT22;47038;50.808;3.468;2022-08-19T10:53:26;26.00;94.20
61167;DHT22;47038;50.808;3.468;2022-08-19T10:55:52;25.80;94.30
61167;DHT22;47038;50.808;3.468;2022-08-19T10:58:36;25.80;94.20
61167;DHT22;47038;50.808;3.468;2022-08-19T11:01:01;25.70;94.30
61167;DHT22;47038;50.808;3.468;2022-08-19T11:03:27;25.50;94.70
61167;DHT22;47038;50.808;3.468;2022-08-19T11:05:59;25.40;95.00
61167;DHT22;47038;50.808;3.468;2022-08-19T11:08:25;25.30;94.90
61167;DHT22;47038;50.808;3.468;2022-08-19T11:10:52;25.10;95.20
61167;DHT22;47038;50.808;3.468;2022-08-19T11:13:20;25.00;95.60
61167;DHT22;47038;50.808;3.468;2022-08-19T11:15:46;24.90;95.60
61167;DHT22;47038;50.808;3.468;2022-08-19T11:18:12;24.90;95.80
61167;DHT22;47038;50.808;3.468;2022-08-19T11:20:38;24.90;95.80
61167;DHT22;47038;50.808;3.468;2022-08-19T11:23:04;25.00;95.80
61167;DHT22;47038;50.808;3.468;2022-08-19T11:25:29;25.20;95.80
61167;DHT22;47038;50.808;3.468;2022-08-19T11:27:55;25.40;95.50
61167;DHT22;47038;50.808;3.468;2022-08-19T11:30:20;25.30;95.50
61167;DHT22;47038;50.808;3.468;2022-08-19T11:32:46;25.20;95.30
61167;DHT22;47038;50.808;3.468;2022-08-19T11:35:13;25.20;95.50
61167;DHT22;47038;50.808;3.468;2022-08-19T11:37:38;25.30;95.60
61167;DHT22;47038;50.808;3.468;2022-08-19T11:40:05;25.40;95.30
61167;DHT22;47038;50.808;3.468;2022-08-19T11:42:31;25.40;95.30
61167;DHT22;47038;50.808;3.468;2022-08-19T11:45:15;25.30;95.20
61167;DHT22;47038;50.808;3.468;2022-08-19T11:47:41;25.40;95.00
61167;DHT22;47038;50.808;3.468;2022-08-19T11:50:06;25.50;94.80
61167;DHT22;47038;50.808;3.468;2022-08-19T11:52:32;25.40;95.10
61167;DHT22;47038;50.808;3.468;2022-08-19T11:54:58;25.60;94.40
61167;DHT22;47038;50.808;3.468;2022-08-19T11:57:23;25.80;94.30
61167;DHT22;47038;50.808;3.468;2022-08-19T11:59:50;25.90;94.10
61167;DHT22;47038;50.808;3.468;2022-08-19T12:02:15;26.10;93.70
61167;DHT22;47038;50.808;3.468;2022-08-19T12:04:41;25.90;94.00
61167;DHT22;47038;50.808;3.468;2022-08-19T12:07:06;26.20;93.90
61167;DHT22;47038;50.808;3.468;2022-08-19T12:09:32;26.30;93.90
61167;DHT22;47038;50.808;3.468;2022-08-19T12:12:00;26.60;93.50
61167;DHT22;47038;50.808;3.468;2022-08-19T12:14:27;26.40;93.30
61167;DHT22;47038;50.808;3.468;2022-08-19T12:16:55;26.30;93.50
61167;DHT22;47038;50.808;3.468;2022-08-19T12:19:22;26.10;94.00
61167;DHT22;47038;50.808;3.468;2022-08-19T12:21:48;25.70;96.10
61167;DHT22;47038;50.808;3.468;2022-08-19T12:24:14;25.20;97.80
61167;DHT22;47038;50.808;3.468;2022-08-19T12:26:39;24.90;98.50
61167;DHT22;47038;50.808;3.468;2022-08-19T12:29:05;24.70;98.80
61167;DHT22;47038;50.808;3.468;2022-08-19T12:31:31;24.70;99.40
61167;DHT22;47038;50.808;3.468;2022-08-19T12:33:57;24.60;99.90
61167;DHT22;47038;50.808;3.468;2022-08-19T12:36:22;24.70;99.90
61167;DHT22;47038;50.808;3.468;2022-08-19T12:38:48;24.90;99.90
61167;DHT22;47038;50.808;3.468;2022-08-19T12:41:14;25.00;99.90
61167;DHT22;47038;50.808;3.468;2022-08-19T12:43:40;25.30;99.90
61167;DHT22;47038;50.808;3.468;2022-08-19T12:46:07;25.70;99.90
61167;DHT22;47038;50.808;3.468;2022-08-19T12:48:33;26.10;99.20
61167;DHT22;47038;50.808;3.468;2022-08-19T12:50:59;26.40;99.20
61167;DHT22;47038;50.808;3.468;2022-08-19T12:53:25;26.60;98.20
61167;DHT22;47038;50.808;3.468;2022-08-19T12:55:57;26.90;98.40
61167;DHT22;47038;50.808;3.468;2022-08-19T12:58:25;27.00;97.70
61167;DHT22;47038;50.808;3.468;2022-08-19T13:00:51;27.00;97.70
61167;DHT22;47038;50.808;3.468;2022-08-19T13:03:17;27.10;96.40
61167;DHT22;47038;50.808;3.468;2022-08-19T13:05:42;26.90;97.10
61167;DHT22;47038;50.808;3.468;2022-08-19T13:08:08;26.90;96.60
61167;DHT22;47038;50.808;3.468;2022-08-19T13:10:34;26.80;96.70
61167;DHT22;47038;50.808;3.468;2022-08-19T13:13:01;26.80;95.70
61167;DHT22;47038;50.808;3.468;2022-08-19T13:15:28;27.00;95.30
61167;DHT22;47038;50.808;3.468;2022-08-19T13:17:56;27.10;95.00
61167;DHT22;47038;50.808;3.468;2022-08-19T13:20:22;27.40;93.90
61167;DHT22;47038;50.808;3.468;2022-08-19T13:22:48;27.40;94.10
61167;DHT22;47038;50.808;3.468;2022-08-19T13:25:13;27.50;93.80
61167;DHT22;47038;50.808;3.468;2022-08-19T13:27:41;27.40;93.90
61167;DHT22;47038;50.808;3.468;2022-08-19T13:30:09;27.30;93.90
61167;DHT22;47038;50.808;3.468;2022-08-19T13:32:53;27.40;94.10
61167;DHT22;47038;50.808;3.468;2022-08-19T13:35:49;27.60;93.60
61167;DHT22;47038;50.808;3.468;2022-08-19T13:38:16;27.80;93.00
61167;DHT22;47038;50.808;3.468;2022-08-19T13:40:42;27.80;92.70
61167;DHT22;47038;50.808;3.468;2022-08-19T13:43:08;27.90;92.40
61167;DHT22;47038;50.808;3.468;2022-08-19T13:45:34;28.00;91.90
61167;DHT22;47038;50.808;3.468;2022-08-19T13:48:02;27.90;91.60
61167;DHT22;47038;50.808;3.468;2022-08-19T13:50:32;27.80;90.60
61167;DHT22;47038;50.808;3.468;2022-08-19T13:52:58;27.80;90.30
61167;DHT22;47038;50.808;3.468;2022-08-19T13:55:24;27.80;90.20
61167;DHT22;47038;50.808;3.468;2022-08-19T13:57:52;27.80;90.30
61167;DHT22;47038;50.808;3.468;2022-08-19T14:00:18;27.80;90.80
61167;DHT22;47038;50.808;3.468;2022-08-19T14:02:44;27.70;90.20
61167;DHT22;47038;50.808;3.468;2022-08-19T14:05:11;27.80;90.30
61167;DHT22;47038;50.808;3.468;2022-08-19T14:07:37;28.00;90.30
61167;DHT22;47038;50.808;3.468;2022-08-19T14:10:04;28.20;87.80
61167;DHT22;47038;50.808;3.468;2022-08-19T14:12:31;28.30;87.10
61167;DHT22;47038;50.808;3.468;2022-08-19T14:14:57;28.40;87.10
61167;DHT22;47038;50.808;3.468;2022-08-19T14:17:23;28.40;86.50
61167;DHT22;47038;50.808;3.468;2022-08-19T14:19:48;28.60;85.70
61167;DHT22;47038;50.808;3.468;2022-08-19T14:22:14;28.70;85.00
61167;DHT22;47038;50.808;3.468;2022-08-19T14:24:40;29.00;85.00
61167;DHT22;47038;50.808;3.468;2022-08-19T14:27:06;29.00;84.70
61167;DHT22;47038;50.808;3.468;2022-08-19T14:29:32;29.00;83.20
61167;DHT22;47038;50.808;3.468;2022-08-19T14:31:58;28.90;83.50
61167;DHT22;47038;50.808;3.468;2022-08-19T14:34:24;28.80;82.80
61167;DHT22;47038;50.808;3.468;2022-08-19T14:36:50;28.80;83.00
61167;DHT22;47038;50.808;3.468;2022-08-19T14:39:16;28.90;81.50
61167;DHT22;47038;50.808;3.468;2022-08-19T14:41:41;28.80;82.20
61167;DHT22;47038;50.808;3.468;2022-08-19T14:44:07;28.70;83.20
61167;DHT22;47038;50.808;3.468;2022-08-19T14:46:35;28.60;82.70
61167;DHT22;47038;50.808;3.468;2022-08-19T14:49:00;28.30;83.70
61167;DHT22;47038;50.808;3.468;2022-08-19T14:51:26;28.20;84.30
61167;DHT22;47038;50.808;3.468;2022-08-19T14:53:52;28.10;84.80
61167;DHT22;47038;50.808;3.468;2022-08-19T14:56:19;27.90;84.70
61167;DHT22;47038;50.808;3.468;2022-08-19T14:58:45;27.80;84.70
61167;DHT22;47038;50.808;3.468;2022-08-19T15:01:11;27.80;83.70
61167;DHT22;47038;50.808;3.468;2022-08-19T15:03:37;27.80;84.00
61167;DHT22;47038;50.808;3.468;2022-08-19T15:06:05;27.90;84.50
61167;DHT22;47038;50.808;3.468;2022-08-19T15:08:31;28.00;84.10
61167;DHT22;47038;50.808;3.468;2022-08-19T15:10:57;28.00;83.60
61167;DHT22;47038;50.808;3.468;2022-08-19T15:13:24;28.00;83.80
61167;DHT22;47038;50.808;3.468;2022-08-19T15:15:49;28.10;83.40
61167;DHT22;47038;50.808;3.468;2022-08-19T15:18:17;28.20;82.40
61167;DHT22;47038;50.808;3.468;2022-08-19T15:20:42;28.20;83.00
61167;DHT22;47038;50.808;3.468;2022-08-19T15:23:09;28.10;82.80
61167;DHT22;47038;50.808;3.468;2022-08-19T15:25:36;28.00;82.30
61167;DHT22;47038;50.808;3.468;2022-08-19T15:28:01;27.90;83.60
61167;DHT22;47038;50.808;3.468;2022-08-19T15:30:28;27.60;83.60
61167;DHT22;47038;50.808;3.468;2022-08-19T15:32:55;27.30;84.60
61167;DHT22;47038;50.808;3.468;2022-08-19T15:35:21;27.20;84.70
61167;DHT22;47038;50.808;3.468;2022-08-19T15:37:50;27.20;85.10
61167;DHT22;47038;50.808;3.468;2022-08-19T15:40:16;27.10;86.50
61167;DHT22;47038;50.808;3.468;2022-08-19T15:42:42;27.00;87.50
61167;DHT22;47038;50.808;3.468;2022-08-19T15:45:09;27.20;87.00
61167;DHT22;47038;50.808;3.468;2022-08-19T15:47:36;27.50;86.60
61167;DHT22;47038;50.808;3.468;2022-08-19T15:50:06;27.70;85.70
61167;DHT22;47038;50.808;3.468;2022-08-19T15:52:32;27.60;85.90
61167;DHT22;47038;50.808;3.468;2022-08-19T15:54:57;27.60;85.50